sensor_id;sensor_type;location;lat;lon;timestamp;temperature;humidity
40151;DHT22;25866;52.420;10.640;2023-05-02T00:00:36;13.30;99.90
40151;DHT22;25866;52.420;10.640;2023-05-02T00:03:03;13.30;99.90
40151;DHT22;25866;52.420;10.640;2023-05-02T00:05:30;13.30;99.90
40151;DHT22;25866;52.420;10.640;2023-05-02T00:07:56;13.30;99.90
40151;DHT22;25866;52.420;10.640;2023-05-02T00:10:22;13.30;99.90
40151;DHT22;25866;52.420;10.640;2023-05-02T00:12:48;13.20;99.90
40151;DHT22;25866;52.420;10.640;2023-05-02T00:15:13;13.20;99.90
40151;DHT22;25866;52.420;10.640;2023-05-02T00:17:39;13.30;99.90
40151;DHT22;25866;52.420;10.640;2023-05-02T00:20:07;13.20;99.90
40151;DHT22;25866;52.420;10.640;2023-05-02T00:22:34;13.20;99.90
40151;DHT22;25866;52.420;10.640;2023-05-02T00:25:00;13.20;99.90
40151;DHT22;25866;52.420;10.640;2023-05-02T00:27:26;13.20;99.90
40151;DHT22;25866;52.420;10.640;2023-05-02T00:29:52;13.10;99.90
40151;DHT22;25866;52.420;10.640;2023-05-02T00:32:18;13.20;99.90
40151;DHT22;25866;52.420;10.640;2023-05-02T00:34:44;13.10;99.90
40151;DHT22;25866;52.420;10.640;2023-05-02T00:37:09;13.10;99.90
40151;DHT22;25866;52.420;10.640;2023-05-02T00:39:36;13.10;99.90
40151;DHT22;25866;52.420;10.640;2023-05-02T00:42:02;13.10;99.90
40151;DHT22;25866;52.420;10.640;2023-05-02T00:44:28;13.00;99.90
40151;DHT22;25866;52.420;10.640;2023-05-02T00:46:55;13.00;99.90
40151;DHT22;25866;52.420;10.640;2023-05-02T00:49:21;13.00;99.90
40151;DHT22;25866;52.420;10.640;2023-05-02T00:51:47;13.00;99.90
40151;DHT22;25866;52.420;10.640;2023-05-02T00:54:13;12.90;99.90
40151;DHT22;25866;52.420;10.640;2023-05-02T00:56:39;12.90;99.90
40151;DHT22;25866;52.420;10.640;2023-05-02T00:59:06;12.80;99.90
40151;DHT22;25866;52.420;10.640;2023-05-02T01:04:29;12.70;99.90
40151;DHT22;25866;52.420;10.640;2023-05-02T01:07:09;12.70;99.90
40151;DHT22;25866;52.420;10.640;2023-05-02T01:10:19;12.60;99.90
40151;DHT22;25866;52.420;10.640;2023-05-02T01:12:57;12.50;99.90
40151;DHT22;25866;52.420;10.640;2023-05-02T01:15:25;12.50;99.90
40151;DHT22;25866;52.420;10.640;2023-05-02T01:17:52;12.50;99.90
40151;DHT22;25866;52.420;10.640;2023-05-02T01:20:22;12.50;99.90
40151;DHT22;25866;52.420;10.640;2023-05-02T01:22:51;12.50;99.90
40151;DHT22;25866;52.420;10.640;2023-05-02T01:30:52;12.30;99.90
40151;DHT22;25866;52.420;10.640;2023-05-02T01:33:22;12.30;99.90
40151;DHT22;25866;52.420;10.640;2023-05-02T01:35:50;12.40;99.90
40151;DHT22;25866;52.420;10.640;2023-05-02T01:38:18;12.40;99.90
40151;DHT22;25866;52.420;10.640;2023-05-02T01:40:44;12.30;99.90
40151;DHT22;25866;52.420;10.640;2023-05-02T01:43:15;12.30;99.90
40151;DHT22;25866;52.420;10.640;2023-05-02T01:45:44;12.30;99.90
40151;DHT22;25866;52.420;10.640;2023-05-02T01:48:12;12.30;99.90
40151;DHT22;25866;52.420;10.640;2023-05-02T01:50:40;12.20;99.90
40151;DHT22;25866;52.420;10.640;2023-05-02T01:53:10;12.20;99.90
40151;DHT22;25866;52.420;10.640;2023-05-02T01:55:40;12.30;99.90
40151;DHT22;25866;52.420;10.640;2023-05-02T02:00:44;12.30;99.90
40151;DHT22;25866;52.420;10.640;2023-05-02T02:03:12;12.30;99.90
40151;DHT22;25866;52.420;10.640;2023-05-02T02:05:39;12.30;99.90
40151;DHT22;25866;52.420;10.640;2023-05-02T02:08:06;12.30;99.90
40151;DHT22;25866;52.420;10.640;2023-05-02T02:10:37;12.30;99.90
40151;DHT22;25866;52.420;10.640;2023-05-02T02:13:11;12.20;99.90
40151;DHT22;25866;52.420;10.640;2023-05-02T02:15:39;12.20;99.90
40151;DHT22;25866;52.420;10.640;2023-05-02T02:18:12;12.30;99.90
40151;DHT22;25866;52.420;10.640;2023-05-02T02:20:42;12.20;99.90
40151;DHT22;25866;52.420;10.640;2023-05-02T02:23:08;12.20;99.90
40151;DHT22;25866;52.420;10.640;2023-05-02T02:25:36;12.20;99.90
40151;DHT22;25866;52.420;10.640;2023-05-02T02:28:02;12.20;99.90
40151;DHT22;25866;52.420;10.640;2023-05-02T02:30:28;12.20;99.90
40151;DHT22;25866;52.420;10.640;2023-05-02T02:32:53;12.20;99.90
40151;DHT22;25866;52.420;10.640;2023-05-02T02:35:19;12.10;99.90
40151;DHT22;25866;52.420;10.640;2023-05-02T02:37:58;12.10;99.90
40151;DHT22;25866;52.420;10.640;2023-05-02T02:40:27;12.10;99.90
40151;DHT22;25866;52.420;10.640;2023-05-02T02:45:37;12.10;99.90
40151;DHT22;25866;52.420;10.640;2023-05-02T02:48:19;12.00;99.90
40151;DHT22;25866;52.420;10.640;2023-05-02T02:51:12;12.00;99.90
40151;DHT22;25866;52.420;10.640;2023-05-02T02:54:04;11.80;99.90
40151;DHT22;25866;52.420;10.640;2023-05-02T02:56:38;11.80;99.90
40151;DHT22;25866;52.420;10.640;2023-05-02T02:59:19;11.80;99.90
40151;DHT22;25866;52.420;10.640;2023-05-02T03:01:59;11.70;99.90
40151;DHT22;25866;52.420;10.640;2023-05-02T03:04:29;11.70;99.90
40151;DHT22;25866;52.420;10.640;2023-05-02T03:06:56;11.70;99.90
40151;DHT22;25866;52.420;10.640;2023-05-02T03:09:22;11.80;99.90
40151;DHT22;25866;52.420;10.640;2023-05-02T03:11:47;11.80;99.90
40151;DHT22;25866;52.420;10.640;2023-05-02T03:14:13;11.80;99.90
40151;DHT22;25866;52.420;10.640;2023-05-02T03:16:39;11.70;99.90
40151;DHT22;25866;52.420;10.640;2023-05-02T03:19:06;11.70;99.90
40151;DHT22;25866;52.420;10.640;2023-05-02T03:21:33;11.70;99.90
40151;DHT22;25866;52.420;10.640;2023-05-02T03:24:01;11.70;99.90
40151;DHT22;25866;52.420;10.640;2023-05-02T03:26:27;11.70;99.90
40151;DHT22;25866;52.420;10.640;2023-05-02T03:28:53;11.70;99.90
40151;DHT22;25866;52.420;10.640;2023-05-02T03:31:20;11.70;99.90
40151;DHT22;25866;52.420;10.640;2023-05-02T03:33:46;11.60;99.90
40151;DHT22;25866;52.420;10.640;2023-05-02T03:36:12;11.40;99.90
40151;DHT22;25866;52.420;10.640;2023-05-02T03:38:38;11.40;99.90
40151;DHT22;25866;52.420;10.640;2023-05-02T03:41:04;11.40;99.90
40151;DHT22;25866;52.420;10.640;2023-05-02T03:43:30;11.30;99.90
40151;DHT22;25866;52.420;10.640;2023-05-02T03:45:56;11.20;99.90
40151;DHT22;25866;52.420;10.640;2023-05-02T03:48:22;11.30;99.90
40151;DHT22;25866;52.420;10.640;2023-05-02T03:50:49;11.20;99.90
40151;DHT22;25866;52.420;10.640;2023-05-02T03:53:15;11.20;99.90
40151;DHT22;25866;52.420;10.640;2023-05-02T03:55:43;11.20;99.90
40151;DHT22;25866;52.420;10.640;2023-05-02T03:58:10;11.10;99.90
40151;DHT22;25866;52.420;10.640;2023-05-02T04:00:36;11.10;99.90
40151;DHT22;25866;52.420;10.640;2023-05-02T04:03:02;11.20;99.90
40151;DHT22;25866;52.420;10.640;2023-05-02T04:05:28;11.20;99.90
40151;DHT22;25866;52.420;10.640;2023-05-02T04:07:57;11.20;99.90
40151;DHT22;25866;52.420;10.640;2023-05-02T04:10:23;11.20;99.90
40151;DHT22;25866;52.420;10.640;2023-05-02T04:12:49;11.20;99.90
40151;DHT22;25866;52.420;10.640;2023-05-02T04:15:14;11.20;99.90
40151;DHT22;25866;52.420;10.640;2023-05-02T04:17:40;11.20;99.90
40151;DHT22;25866;52.420;10.640;2023-05-02T04:20:06;11.20;99.90
40151;DHT22;25866;52.420;10.640;2023-05-02T04:22:33;11.20;99.90
40151;DHT22;25866;52.420;10.640;2023-05-02T04:24:59;11.20;99.90
40151;DHT22;25866;52.420;10.640;2023-05-02T04:27:25;11.20;99.90
40151;DHT22;25866;52.420;10.640;2023-05-02T04:29:51;11.20;99.90
40151;DHT22;25866;52.420;10.640;2023-05-02T04:32:18;11.20;99.90
40151;DHT22;25866;52.420;10.640;2023-05-02T04:34:43;11.20;99.90
40151;DHT22;25866;52.420;10.640;2023-05-02T04:37:09;11.20;99.90
40151;DHT22;25866;52.420;10.640;2023-05-02T04:39:35;11.20;99.90
40151;DHT22;25866;52.420;10.640;2023-05-02T04:42:01;11.20;99.90
40151;DHT22;25866;52.420;10.640;2023-05-02T04:44:26;11.30;99.90
40151;DHT22;25866;52.420;10.640;2023-05-02T04:46:52;11.30;99.90
40151;DHT22;25866;52.420;10.640;2023-05-02T04:49:18;11.20;99.90
40151;DHT22;25866;52.420;10.640;2023-05-02T04:51:44;11.30;99.90
40151;DHT22;25866;52.420;10.640;2023-05-02T04:54:10;11.20;99.90
40151;DHT22;25866;52.420;10.640;2023-05-02T04:56:37;11.30;99.90
40151;DHT22;25866;52.420;10.640;2023-05-02T04:59:02;11.30;99.90
40151;DHT22;25866;52.420;10.640;2023-05-02T05:01:28;11.30;99.90
40151;DHT22;25866;52.420;10.640;2023-05-02T05:03:54;11.30;99.90
40151;DHT22;25866;52.420;10.640;2023-05-02T05:06:20;11.40;99.90
40151;DHT22;25866;52.420;10.640;2023-05-02T05:08:46;11.30;99.90
40151;DHT22;25866;52.420;10.640;2023-05-02T05:11:12;11.40;99.90
40151;DHT22;25866;52.420;10.640;2023-05-02T05:13:38;11.30;99.90
40151;DHT22;25866;52.420;10.640;2023-05-02T05:16:05;11.40;99.90
40151;DHT22;25866;52.420;10.640;2023-05-02T05:18:30;11.40;99.90
40151;DHT22;25866;52.420;10.640;2023-05-02T05:20:56;11.40;99.90
40151;DHT22;25866;52.420;10.640;2023-05-02T05:23:22;11.40;99.90
40151;DHT22;25866;52.420;10.640;2023-05-02T05:25:48;11.40;99.90
40151;DHT22;25866;52.420;10.640;2023-05-02T05:28:13;11.40;99.90
40151;DHT22;25866;52.420;10.640;2023-05-02T05:30:39;11.40;99.90
40151;DHT22;25866;52.420;10.640;2023-05-02T05:33:05;11.50;99.90
40151;DHT22;25866;52.420;10.640;2023-05-02T05:35:30;11.40;99.90
40151;DHT22;25866;52.420;10.640;2023-05-02T05:37:57;11.50;99.90
40151;DHT22;25866;52.420;10.640;2023-05-02T05:40:23;11.40;99.90
40151;DHT22;25866;52.420;10.640;2023-05-02T05:42:48;11.30;99.90
40151;DHT22;25866;52.420;10.640;2023-05-02T05:45:14;11.30;99.90
40151;DHT22;25866;52.420;10.640;2023-05-02T05:47:42;11.10;99.90
40151;DHT22;25866;52.420;10.640;2023-05-02T05:50:07;11.10;99.90
40151;DHT22;25866;52.420;10.640;2023-05-02T05:52:33;11.10;99.90
40151;DHT22;25866;52.420;10.640;2023-05-02T05:54:59;11.00;99.90
40151;DHT22;25866;52.420;10.640;2023-05-02T05:57:25;11.00;99.90
40151;DHT22;25866;52.420;10.640;2023-05-02T05:59:50;11.00;99.90
40151;DHT22;25866;52.420;10.640;2023-05-02T06:02:16;11.00;99.90
40151;DHT22;25866;52.420;10.640;2023-05-02T06:04:44;11.00;99.90
40151;DHT22;25866;52.420;10.640;2023-05-02T06:07:11;11.00;99.90
40151;DHT22;25866;52.420;10.640;2023-05-02T06:09:36;11.00;99.90
40151;DHT22;25866;52.420;10.640;2023-05-02T06:12:02;10.90;99.90
40151;DHT22;25866;52.420;10.640;2023-05-02T06:14:28;10.90;99.90
40151;DHT22;25866;52.420;10.640;2023-05-02T06:16:54;10.90;99.90
40151;DHT22;25866;52.420;10.640;2023-05-02T06:19:19;10.80;99.90
40151;DHT22;25866;52.420;10.640;2023-05-02T06:21:45;10.70;99.90
40151;DHT22;25866;52.420;10.640;2023-05-02T06:24:11;10.60;99.90
40151;DHT22;25866;52.420;10.640;2023-05-02T06:26:36;10.50;99.90
40151;DHT22;25866;52.420;10.640;2023-05-02T06:29:02;10.50;99.90
40151;DHT22;25866;52.420;10.640;2023-05-02T06:31:28;10.40;99.90
40151;DHT22;25866;52.420;10.640;2023-05-02T06:33:54;10.40;99.90
40151;DHT22;25866;52.420;10.640;2023-05-02T06:36:20;10.30;99.90
40151;DHT22;25866;52.420;10.640;2023-05-02T06:38:46;10.10;99.90
40151;DHT22;25866;52.420;10.640;2023-05-02T06:41:13;10.10;99.90
40151;DHT22;25866;52.420;10.640;2023-05-02T06:43:42;10.10;99.90
40151;DHT22;25866;52.420;10.640;2023-05-02T06:46:08;10.00;99.90
40151;DHT22;25866;52.420;10.640;2023-05-02T06:48:36;10.10;99.90
40151;DHT22;25866;52.420;10.640;2023-05-02T06:51:04;10.00;99.90
40151;DHT22;25866;52.420;10.640;2023-05-02T06:53:30;10.10;99.90
40151;DHT22;25866;52.420;10.640;2023-05-02T06:55:56;10.20;99.90
40151;DHT22;25866;52.420;10.640;2023-05-02T06:58:22;10.30;99.90
40151;DHT22;25866;52.420;10.640;2023-05-02T07:00:48;10.30;99.90
40151;DHT22;25866;52.420;10.640;2023-05-02T07:03:14;10.40;99.90
40151;DHT22;25866;52.420;10.640;2023-05-02T07:05:40;10.40;99.90
40151;DHT22;25866;52.420;10.640;2023-05-02T07:08:06;10.40;99.90
40151;DHT22;25866;52.420;10.640;2023-05-02T07:10:32;10.40;99.90
40151;DHT22;25866;52.420;10.640;2023-05-02T07:12:58;10.30;99.90
40151;DHT22;25866;52.420;10.640;2023-05-02T07:15:23;10.30;99.90
40151;DHT22;25866;52.420;10.640;2023-05-02T07:17:49;10.20;99.90
40151;DHT22;25866;52.420;10.640;2023-05-02T07:20:15;10.10;99.90
40151;DHT22;25866;52.420;10.640;2023-05-02T07:22:41;10.00;99.90
40151;DHT22;25866;52.420;10.640;2023-05-02T07:25:08;10.10;99.90
40151;DHT22;25866;52.420;10.640;2023-05-02T07:27:34;10.10;99.90
40151;DHT22;25866;52.420;10.640;2023-05-02T07:30:01;10.10;99.90
40151;DHT22;25866;52.420;10.640;2023-05-02T07:32:27;10.10;99.90
40151;DHT22;25866;52.420;10.640;2023-05-02T07:34:53;10.10;99.90
40151;DHT22;25866;52.420;10.640;2023-05-02T07:37:19;10.20;99.90
40151;DHT22;25866;52.420;10.640;2023-05-02T07:39:45;10.00;99.90
40151;DHT22;25866;52.420;10.640;2023-05-02T07:42:11;10.00;99.90
40151;DHT22;25866;52.420;10.640;2023-05-02T07:44:37;10.00;99.90
40151;DHT22;25866;52.420;10.640;2023-05-02T07:47:02;10.00;99.90
40151;DHT22;25866;52.420;10.640;2023-05-02T07:49:28;10.10;99.90
40151;DHT22;25866;52.420;10.640;2023-05-02T07:51:55;10.20;99.90
40151;DHT22;25866;52.420;10.640;2023-05-02T07:54:21;10.20;99.90
40151;DHT22;25866;52.420;10.640;2023-05-02T07:56:47;10.20;99.90
40151;DHT22;25866;52.420;10.640;2023-05-02T07:59:16;10.30;99.90
40151;DHT22;25866;52.420;10.640;2023-05-02T08:01:42;10.20;99.90
40151;DHT22;25866;52.420;10.640;2023-05-02T08:04:08;10.20;99.90
40151;DHT22;25866;52.420;10.640;2023-05-02T08:06:37;10.20;99.90
40151;DHT22;25866;52.420;10.640;2023-05-02T08:09:03;10.20;99.90
40151;DHT22;25866;52.420;10.640;2023-05-02T08:11:28;10.20;99.90
40151;DHT22;25866;52.420;10.640;2023-05-02T08:13:54;10.30;99.90
40151;DHT22;25866;52.420;10.640;2023-05-02T08:16:20;10.30;99.90
40151;DHT22;25866;52.420;10.640;2023-05-02T08:18:46;10.30;99.90
40151;DHT22;25866;52.420;10.640;2023-05-02T08:21:12;10.30;99.90
40151;DHT22;25866;52.420;10.640;2023-05-02T08:23:40;10.40;99.90
40151;DHT22;25866;52.420;10.640;2023-05-02T08:26:06;10.60;99.90
40151;DHT22;25866;52.420;10.640;2023-05-02T08:28:31;10.50;99.90
40151;DHT22;25866;52.420;10.640;2023-05-02T08:30:57;10.60;99.90
40151;DHT22;25866;52.420;10.640;2023-05-02T08:33:23;10.70;99.90
40151;DHT22;25866;52.420;10.640;2023-05-02T08:35:48;10.80;99.90
40151;DHT22;25866;52.420;10.640;2023-05-02T08:38:14;10.90;99.90
40151;DHT22;25866;52.420;10.640;2023-05-02T08:40:40;10.90;99.90
40151;DHT22;25866;52.420;10.640;2023-05-02T08:43:06;10.90;99.90
40151;DHT22;25866;52.420;10.640;2023-05-02T08:45:39;11.00;99.90
40151;DHT22;25866;52.420;10.640;2023-05-02T08:48:07;11.00;99.90
40151;DHT22;25866;52.420;10.640;2023-05-02T08:50:38;11.00;99.90
40151;DHT22;25866;52.420;10.640;2023-05-02T08:53:08;11.10;99.90
40151;DHT22;25866;52.420;10.640;2023-05-02T08:55:36;11.10;99.90
40151;DHT22;25866;52.420;10.640;2023-05-02T08:58:05;11.10;99.90
40151;DHT22;25866;52.420;10.640;2023-05-02T09:00:32;10.90;99.90
40151;DHT22;25866;52.420;10.640;2023-05-02T09:05:41;10.80;99.90
40151;DHT22;25866;52.420;10.640;2023-05-02T09:08:07;11.00;99.90
40151;DHT22;25866;52.420;10.640;2023-05-02T09:10:34;11.10;99.90
40151;DHT22;25866;52.420;10.640;2023-05-02T09:18:43;11.00;99.90
40151;DHT22;25866;52.420;10.640;2023-05-02T09:21:14;11.00;99.90
40151;DHT22;25866;52.420;10.640;2023-05-02T09:23:45;11.00;99.90
40151;DHT22;25866;52.420;10.640;2023-05-02T09:28:46;10.90;99.90
40151;DHT22;25866;52.420;10.640;2023-05-02T09:31:18;10.70;99.90
40151;DHT22;25866;52.420;10.640;2023-05-02T09:33:45;10.70;99.90
40151;DHT22;25866;52.420;10.640;2023-05-02T09:36:13;10.70;99.90
40151;DHT22;25866;52.420;10.640;2023-05-02T09:38:42;10.60;99.90
40151;DHT22;25866;52.420;10.640;2023-05-02T09:41:09;10.60;99.90
40151;DHT22;25866;52.420;10.640;2023-05-02T09:43:35;10.60;99.90
40151;DHT22;25866;52.420;10.640;2023-05-02T09:46:09;10.60;99.90
40151;DHT22;25866;52.420;10.640;2023-05-02T09:49:04;10.80;99.90
40151;DHT22;25866;52.420;10.640;2023-05-02T09:51:30;11.00;99.90
40151;DHT22;25866;52.420;10.640;2023-05-02T09:53:56;11.00;99.90
40151;DHT22;25866;52.420;10.640;2023-05-02T09:56:22;11.30;99.90
40151;DHT22;25866;52.420;10.640;2023-05-02T09:58:47;11.40;99.90
40151;DHT22;25866;52.420;10.640;2023-05-02T10:01:14;11.40;99.90
40151;DHT22;25866;52.420;10.640;2023-05-02T10:03:45;11.30;99.90
40151;DHT22;25866;52.420;10.640;2023-05-02T10:06:12;11.30;99.90
40151;DHT22;25866;52.420;10.640;2023-05-02T10:08:38;11.20;99.90
40151;DHT22;25866;52.420;10.640;2023-05-02T10:11:07;11.30;99.90
40151;DHT22;25866;52.420;10.640;2023-05-02T10:13:35;11.40;99.90
40151;DHT22;25866;52.420;10.640;2023-05-02T10:16:05;11.40;99.90
40151;DHT22;25866;52.420;10.640;2023-05-02T10:21:10;11.20;99.90
40151;DHT22;25866;52.420;10.640;2023-05-02T10:23:40;11.20;99.90
40151;DHT22;25866;52.420;10.640;2023-05-02T10:26:06;11.20;99.90
40151;DHT22;25866;52.420;10.640;2023-05-02T10:28:33;11.20;99.90
40151;DHT22;25866;52.420;10.640;2023-05-02T10:30:59;11.10;99.90
40151;DHT22;25866;52.420;10.640;2023-05-02T10:33:27;11.10;99.90
40151;DHT22;25866;52.420;10.640;2023-05-02T10:35:56;11.10;99.90
40151;DHT22;25866;52.420;10.640;2023-05-02T10:38:22;11.20;99.90
40151;DHT22;25866;52.420;10.640;2023-05-02T10:41:17;11.20;99.90
40151;DHT22;25866;52.420;10.640;2023-05-02T10:43:47;11.20;99.90
40151;DHT22;25866;52.420;10.640;2023-05-02T10:46:33;11.20;99.90
40151;DHT22;25866;52.420;10.640;2023-05-02T10:49:10;11.30;99.90
40151;DHT22;25866;52.420;10.640;2023-05-02T10:51:41;11.40;99.90
40151;DHT22;25866;52.420;10.640;2023-05-02T10:59:39;12.10;99.90
40151;DHT22;25866;52.420;10.640;2023-05-02T11:05:06;12.40;99.90
40151;DHT22;25866;52.420;10.640;2023-05-02T11:07:36;12.30;99.60
40151;DHT22;25866;52.420;10.640;2023-05-02T11:12:53;11.80;99.90
40151;DHT22;25866;52.420;10.640;2023-05-02T11:18:05;11.50;99.90
40151;DHT22;25866;52.420;10.640;2023-05-02T11:20:33;11.30;99.90
40151;DHT22;25866;52.420;10.640;2023-05-02T11:23:19;11.30;99.90
40151;DHT22;25866;52.420;10.640;2023-05-02T11:25:57;11.40;99.90
40151;DHT22;25866;52.420;10.640;2023-05-02T11:28:38;11.30;99.90
40151;DHT22;25866;52.420;10.640;2023-05-02T11:31:09;11.40;99.90
40151;DHT22;25866;52.420;10.640;2023-05-02T11:33:35;11.60;99.40
40151;DHT22;25866;52.420;10.640;2023-05-02T11:36:01;11.60;99.90
40151;DHT22;25866;52.420;10.640;2023-05-02T11:38:35;11.70;99.90
40151;DHT22;25866;52.420;10.640;2023-05-02T11:41:01;12.00;99.90
40151;DHT22;25866;52.420;10.640;2023-05-02T11:43:28;12.20;98.80
40151;DHT22;25866;52.420;10.640;2023-05-02T11:45:55;12.20;99.90
40151;DHT22;25866;52.420;10.640;2023-05-02T11:48:22;12.10;98.30
40151;DHT22;25866;52.420;10.640;2023-05-02T11:50:54;12.20;99.30
40151;DHT22;25866;52.420;10.640;2023-05-02T11:53:22;12.60;99.90
40151;DHT22;25866;52.420;10.640;2023-05-02T11:55:51;13.20;98.50
40151;DHT22;25866;52.420;10.640;2023-05-02T11:58:21;13.40;97.00
40151;DHT22;25866;52.420;10.640;2023-05-02T12:00:48;13.30;96.90
40151;DHT22;25866;52.420;10.640;2023-05-02T12:03:30;12.90;95.70
40151;DHT22;25866;52.420;10.640;2023-05-02T12:06:07;12.80;95.70
40151;DHT22;25866;52.420;10.640;2023-05-02T12:08:34;12.40;96.50
40151;DHT22;25866;52.420;10.640;2023-05-02T12:11:00;12.20;97.00
40151;DHT22;25866;52.420;10.640;2023-05-02T12:13:25;12.30;96.70
40151;DHT22;25866;52.420;10.640;2023-05-02T12:15:53;13.00;98.60
40151;DHT22;25866;52.420;10.640;2023-05-02T12:18:21;13.60;98.00
40151;DHT22;25866;52.420;10.640;2023-05-02T12:20:54;14.20;94.50
40151;DHT22;25866;52.420;10.640;2023-05-02T12:23:23;14.20;94.00
40151;DHT22;25866;52.420;10.640;2023-05-02T12:25:49;14.10;96.00
40151;DHT22;25866;52.420;10.640;2023-05-02T12:28:18;14.60;97.00
40151;DHT22;25866;52.420;10.640;2023-05-02T12:30:47;14.90;93.50
40151;DHT22;25866;52.420;10.640;2023-05-02T12:33:12;14.80;93.90
40151;DHT22;25866;52.420;10.640;2023-05-02T12:35:38;14.90;90.10
40151;DHT22;25866;52.420;10.640;2023-05-02T12:38:12;14.40;89.90
40151;DHT22;25866;52.420;10.640;2023-05-02T12:40:38;13.90;90.10
40151;DHT22;25866;52.420;10.640;2023-05-02T12:43:10;13.50;93.90
40151;DHT22;25866;52.420;10.640;2023-05-02T12:45:36;13.70;93.20
40151;DHT22;25866;52.420;10.640;2023-05-02T12:48:23;14.20;93.10
40151;DHT22;25866;52.420;10.640;2023-05-02T12:50:50;14.50;90.20
40151;DHT22;25866;52.420;10.640;2023-05-02T12:53:17;14.80;91.00
40151;DHT22;25866;52.420;10.640;2023-05-02T12:55:42;15.00;90.80
40151;DHT22;25866;52.420;10.640;2023-05-02T12:58:09;15.30;93.20
40151;DHT22;25866;52.420;10.640;2023-05-02T13:00:39;15.30;90.40
40151;DHT22;25866;52.420;10.640;2023-05-02T13:03:06;15.20;87.10
40151;DHT22;25866;52.420;10.640;2023-05-02T13:05:32;14.70;84.00
40151;DHT22;25866;52.420;10.640;2023-05-02T13:07:59;14.20;87.40
40151;DHT22;25866;52.420;10.640;2023-05-02T13:10:25;13.80;89.90
40151;DHT22;25866;52.420;10.640;2023-05-02T13:12:52;13.90;93.20
40151;DHT22;25866;52.420;10.640;2023-05-02T13:15:18;14.40;90.90
40151;DHT22;25866;52.420;10.640;2023-05-02T13:17:44;14.60;86.10
40151;DHT22;25866;52.420;10.640;2023-05-02T13:20:10;14.90;90.40
40151;DHT22;25866;52.420;10.640;2023-05-02T13:22:37;14.90;89.00
40151;DHT22;25866;52.420;10.640;2023-05-02T13:25:04;15.40;90.80
40151;DHT22;25866;52.420;10.640;2023-05-02T13:27:29;15.30;80.10
40151;DHT22;25866;52.420;10.640;2023-05-02T13:29:55;15.20;83.70
40151;DHT22;25866;52.420;10.640;2023-05-02T13:32:21;15.00;87.80
40151;DHT22;25866;52.420;10.640;2023-05-02T13:34:47;14.60;84.40
40151;DHT22;25866;52.420;10.640;2023-05-02T13:37:13;14.40;83.80
40151;DHT22;25866;52.420;10.640;2023-05-02T13:39:38;14.40;86.00
40151;DHT22;25866;52.420;10.640;2023-05-02T13:42:04;14.60;88.00
40151;DHT22;25866;52.420;10.640;2023-05-02T13:44:31;14.80;83.10
40151;DHT22;25866;52.420;10.640;2023-05-02T13:46:57;15.10;89.30
40151;DHT22;25866;52.420;10.640;2023-05-02T13:49:23;15.30;80.90
40151;DHT22;25866;52.420;10.640;2023-05-02T13:51:48;15.30;80.10
40151;DHT22;25866;52.420;10.640;2023-05-02T13:54:14;14.80;82.00
40151;DHT22;25866;52.420;10.640;2023-05-02T13:56:40;14.80;87.20
40151;DHT22;25866;52.420;10.640;2023-05-02T13:59:07;15.20;85.70
40151;DHT22;25866;52.420;10.640;2023-05-02T14:01:32;15.60;83.00
40151;DHT22;25866;52.420;10.640;2023-05-02T14:03:58;15.80;83.00
40151;DHT22;25866;52.420;10.640;2023-05-02T14:06:24;15.50;82.80
40151;DHT22;25866;52.420;10.640;2023-05-02T14:08:50;14.70;80.90
40151;DHT22;25866;52.420;10.640;2023-05-02T14:11:16;14.00;84.60
40151;DHT22;25866;52.420;10.640;2023-05-02T14:13:42;14.00;86.20
40151;DHT22;25866;52.420;10.640;2023-05-02T14:16:08;14.20;87.20
40151;DHT22;25866;52.420;10.640;2023-05-02T14:18:34;14.10;89.00
40151;DHT22;25866;52.420;10.640;2023-05-02T14:21:00;14.00;88.80
40151;DHT22;25866;52.420;10.640;2023-05-02T14:23:27;13.80;84.80
40151;DHT22;25866;52.420;10.640;2023-05-02T14:25:53;13.70;87.60
40151;DHT22;25866;52.420;10.640;2023-05-02T14:28:19;14.00;85.50
40151;DHT22;25866;52.420;10.640;2023-05-02T14:30:47;14.20;82.00
40151;DHT22;25866;52.420;10.640;2023-05-02T14:33:13;14.20;83.70
40151;DHT22;25866;52.420;10.640;2023-05-02T14:35:39;14.40;86.10
40151;DHT22;25866;52.420;10.640;2023-05-02T14:38:05;14.60;85.80
40151;DHT22;25866;52.420;10.640;2023-05-02T14:40:32;14.80;84.00
40151;DHT22;25866;52.420;10.640;2023-05-02T14:42:58;15.00;84.60
40151;DHT22;25866;52.420;10.640;2023-05-02T14:45:24;14.90;81.90
40151;DHT22;25866;52.420;10.640;2023-05-02T14:47:50;14.50;82.60
40151;DHT22;25866;52.420;10.640;2023-05-02T14:50:16;13.80;84.50
40151;DHT22;25866;52.420;10.640;2023-05-02T14:52:42;13.40;86.00
40151;DHT22;25866;52.420;10.640;2023-05-02T14:55:10;13.40;86.40
40151;DHT22;25866;52.420;10.640;2023-05-02T14:57:36;13.40;84.80
40151;DHT22;25866;52.420;10.640;2023-05-02T15:00:04;13.30;88.00
40151;DHT22;25866;52.420;10.640;2023-05-02T15:02:32;13.70;87.00
40151;DHT22;25866;52.420;10.640;2023-05-02T15:04:58;14.00;87.50
40151;DHT22;25866;52.420;10.640;2023-05-02T15:07:24;14.10;88.10
40151;DHT22;25866;52.420;10.640;2023-05-02T15:09:51;14.30;82.50
40151;DHT22;25866;52.420;10.640;2023-05-02T15:12:16;14.30;85.00
40151;DHT22;25866;52.420;10.640;2023-05-02T15:14:42;14.30;83.40
40151;DHT22;25866;52.420;10.640;2023-05-02T15:17:08;14.20;83.70
40151;DHT22;25866;52.420;10.640;2023-05-02T15:19:33;14.10;85.40
40151;DHT22;25866;52.420;10.640;2023-05-02T15:21:59;14.20;82.70
40151;DHT22;25866;52.420;10.640;2023-05-02T15:24:26;13.80;83.30
40151;DHT22;25866;52.420;10.640;2023-05-02T15:26:52;13.50;85.10
40151;DHT22;25866;52.420;10.640;2023-05-02T15:29:17;13.00;85.30
40151;DHT22;25866;52.420;10.640;2023-05-02T15:31:43;12.70;85.20
40151;DHT22;25866;52.420;10.640;2023-05-02T15:34:09;12.60;86.20
40151;DHT22;25866;52.420;10.640;2023-05-02T15:36:34;12.30;89.50
40151;DHT22;25866;52.420;10.640;2023-05-02T15:39:05;12.20;88.30
40151;DHT22;25866;52.420;10.640;2023-05-02T15:41:31;12.20;88.30
40151;DHT22;25866;52.420;10.640;2023-05-02T15:43:57;12.00;87.30
40151;DHT22;25866;52.420;10.640;2023-05-02T15:46:23;12.00;90.20
40151;DHT22;25866;52.420;10.640;2023-05-02T15:48:49;11.90;90.80
40151;DHT22;25866;52.420;10.640;2023-05-02T15:51:15;11.90;88.70
40151;DHT22;25866;52.420;10.640;2023-05-02T15:53:41;11.90;91.30
40151;DHT22;25866;52.420;10.640;2023-05-02T15:56:12;12.00;91.00
40151;DHT22;25866;52.420;10.640;2023-05-02T15:58:38;12.00;91.50